Time;durP1;ratioP1;P1;durP2;ratioP2;P2;SDS_P1;SDS_P2;PMS_P1;PMS_P2;Temp;Humidity;BMP_temperature;BMP_pressure;BME280_temperature;BME280_humidity;BME280_pressure;Samples;Min_cycle;Max_cycle;Signal;HPM_P1;HPM_P2
2023/12/07 00:01:55;;;;;;;0.20;0.20;;;;;;;1.08;100.00;96708.03;5027422;28;20056;-76
2023/12/07 00:04:41;;;;;;;0.20;0.20;;;;;;;1.15;100.00;96708.94;5026314;28;20115;-76
2023/12/07 00:07:27;;;;;;;0.20;0.20;;;;;;;1.18;100.00;96707.78;5022899;28;20498;-77
2023/12/07 00:10:14;;;;;;;0.20;0.20;;;;;;;1.28;100.00;96706.47;5028734;28;20304;-78
2023/12/07 00:13:00;;;;;;;0.20;0.20;;;;;;;1.27;100.00;96714.56;5018262;28;20045;-77
2023/12/07 00:15:46;;;;;;;0.20;0.20;;;;;;;1.32;100.00;96715.66;5027075;28;20033;-77
2023/12/07 00:18:32;;;;;;;0.20;0.20;;;;;;;1.26;100.00;96726.94;5025419;28;20049;-77
2023/12/07 00:21:18;;;;;;;0.20;0.20;;;;;;;1.23;100.00;96727.28;5027178;28;20297;-77
2023/12/07 00:24:04;;;;;;;0.20;0.20;;;;;;;1.20;100.00;96727.66;5025001;28;20433;-77
2023/12/07 00:26:50;;;;;;;0.10;0.10;;;;;;;1.24;100.00;96733.38;5026014;28;20145;-77
2023/12/07 00:29:37;;;;;;;0.20;0.20;;;;;;;1.25;100.00;96724.50;5023505;28;20505;-77
2023/12/07 00:32:23;;;;;;;0.20;0.20;;;;;;;1.29;100.00;96736.28;5025311;28;20041;-76
2023/12/07 00:35:11;;;;;;;0.10;0.10;;;;;;;1.32;100.00;96736.75;5027001;28;20033;-76
2023/12/07 00:37:57;;;;;;;0.20;0.20;;;;;;;1.36;100.00;96732.75;5024056;28;20591;-76
2023/12/07 00:40:43;;;;;;;0.10;0.10;;;;;;;1.47;100.00;96730.63;5005401;28;20052;-76
2023/12/07 00:43:29;;;;;;;0.20;0.20;;;;;;;1.54;100.00;96731.53;5016071;28;20048;-77
2023/12/07 00:46:15;;;;;;;0.20;0.20;;;;;;;1.57;100.00;96736.44;5029874;28;20037;-76
2023/12/07 00:49:00;;;;;;;0.20;0.20;;;;;;;1.56;100.00;96737.47;5030582;28;20706;-76
2023/12/07 00:51:46;;;;;;;0.20;0.20;;;;;;;1.55;100.00;96733.16;5027350;28;20045;-76
2023/12/07 00:54:32;;;;;;;0.10;0.10;;;;;;;1.53;100.00;96733.34;5029306;28;20527;-77
2023/12/07 00:57:18;;;;;;;0.20;0.20;;;;;;;1.59;100.00;96745.81;5028388;28;20291;-76
2023/12/07 01:00:05;;;;;;;0.20;0.20;;;;;;;1.62;100.00;96736.69;5030975;28;20571;-76
2023/12/07 01:02:51;;;;;;;0.20;0.20;;;;;;;1.68;100.00;96738.59;5013055;28;20492;-76
2023/12/07 01:05:37;;;;;;;0.20;0.20;;;;;;;1.74;100.00;96739.69;5030526;28;20147;-77
2023/12/07 01:08:23;;;;;;;0.20;0.20;;;;;;;1.73;100.00;96740.69;5027396;28;20047;-76
2023/12/07 01:11:09;;;;;;;0.20;0.20;;;;;;;1.77;100.00;96745.41;5029129;28;20087;-76
2023/12/07 01:13:55;;;;;;;0.20;0.20;;;;;;;1.79;100.00;96746.03;5027348;28;20033;-77
2023/12/07 01:16:41;;;;;;;0.20;0.20;;;;;;;1.73;100.00;96745.97;5028214;28;20053;-76
2023/12/07 01:19:27;;;;;;;0.20;0.20;;;;;;;1.68;100.00;96757.06;5029450;28;20053;-76
2023/12/07 01:22:13;;;;;;;0.20;0.20;;;;;;;1.56;100.00;96763.84;5029203;28;20519;-76
2023/12/07 01:24:58;;;;;;;0.20;0.20;;;;;;;1.54;100.00;96755.25;5029643;28;20136;-76
2023/12/07 01:27:44;;;;;;;0.20;0.20;;;;;;;1.52;100.00;96768.66;5022453;28;20502;-76
2023/12/07 01:30:30;;;;;;;0.20;0.20;;;;;;;1.51;100.00;96769.66;5027327;28;20409;-76
2023/12/07 01:33:16;;;;;;;0.20;0.20;;;;;;;1.49;100.00;96765.56;5012737;28;20045;-76
2023/12/07 01:36:02;;;;;;;0.20;0.20;;;;;;;1.44;100.00;96765.28;5028760;28;20072;-76
2023/12/07 01:38:48;;;;;;;0.20;0.20;;;;;;;1.43;100.00;96769.75;5024541;28;20486;-76
2023/12/07 01:41:34;;;;;;;0.20;0.20;;;;;;;1.38;100.00;96761.56;5029780;28;20114;-76
2023/12/07 01:44:20;;;;;;;0.20;0.20;;;;;;;1.28;100.00;96764.47;5026382;28;20037;-76
2023/12/07 01:47:08;;;;;;;0.10;0.10;;;;;;;1.15;100.00;96766.13;5026431;28;20230;-76
2023/12/07 01:49:54;;;;;;;0.20;0.20;;;;;;;1.14;100.00;96770.56;5028638;28;20390;-76
2023/12/07 01:52:47;;;;;;;0.10;0.10;;;;;;;1.13;100.00;96765.50;5026644;28;20102;-76
2023/12/07 01:55:33;;;;;;;0.20;0.20;;;;;;;1.13;100.00;96765.50;5028725;28;20041;-76
2023/12/07 01:58:20;;;;;;;0.20;0.20;;;;;;;1.32;100.00;96767.56;5029778;28;20124;-76
2023/12/07 02:01:06;;;;;;;0.20;0.20;;;;;;;1.41;100.00;96776.22;5028917;28;20033;-76
2023/12/07 02:03:52;;;;;;;0.20;0.20;;;;;;;1.46;100.00;96776.47;5027539;28;20049;-76
2023/12/07 02:06:38;;;;;;;0.15;0.15;;;;;;;1.51;100.00;96782.84;5029776;28;20473;-76
2023/12/07 02:09:24;;;;;;;0.20;0.20;;;;;;;1.57;100.00;96776.03;4995264;28;20041;-76
2023/12/07 02:12:10;;;;;;;0.20;0.20;;;;;;;1.67;100.00;96782.63;5003567;28;20537;-76
2023/12/07 02:14:56;;;;;;;0.20;0.20;;;;;;;1.71;100.00;96776.97;4982517;28;20053;-76
2023/12/07 02:17:51;;;;;;;0.20;0.20;;;;;;;1.75;100.00;96780.91;4991792;28;20041;-76
2023/12/07 02:21:02;;;;;;;0.20;0.20;;;;;;;1.75;100.00;96778.25;4990509;28;20041;-76
2023/12/07 02:23:52;;;;;;;0.28;0.28;;;;;;;1.81;100.00;96783.63;5012723;28;20044;-76
2023/12/07 02:26:38;;;;;;;0.17;0.17;;;;;;;1.75;100.00;96772.97;5028008;28;20044;-76
2023/12/07 02:29:24;;;;;;;0.20;0.20;;;;;;;1.73;100.00;96775.81;5013368;28;20048;-76
2023/12/07 02:32:10;;;;;;;0.17;0.17;;;;;;;1.78;100.00;96778.69;5026587;28;20440;-75
2023/12/07 02:34:56;;;;;;;0.20;0.20;;;;;;;1.75;100.00;96779.06;5029401;28;20037;-76
2023/12/07 02:37:47;;;;;;;0.17;0.17;;;;;;;1.81;100.00;96780.16;5027341;28;20401;-76
2023/12/07 02:40:35;;;;;;;0.20;0.20;;;;;;;1.68;100.00;96783.44;5028751;28;20049;-76
2023/12/07 02:43:24;;;;;;;0.20;0.20;;;;;;;1.67;100.00;96779.19;5020635;28;20068;-76
2023/12/07 02:46:10;;;;;;;0.20;0.20;;;;;;;1.58;100.00;96780.28;5027422;28;20044;-76
2023/12/07 02:48:57;;;;;;;0.20;0.20;;;;;;;1.57;100.00;96781.28;5028284;28;20033;-76
2023/12/07 02:51:43;;;;;;;0.20;0.20;;;;;;;1.60;100.00;96781.72;5022380;28;20444;-75
2023/12/07 02:54:29;;;;;;;0.17;0.17;;;;;;;1.63;100.00;96786.66;5028925;28;20041;-76
2023/12/07 02:57:15;;;;;;;0.17;0.17;;;;;;;1.64;100.00;96790.13;5028759;28;20043;-76
2023/12/07 03:00:08;;;;;;;0.20;0.20;;;;;;;1.63;100.00;96791.94;5029195;28;20042;-76
2023/12/07 03:02:54;;;;;;;0.20;0.20;;;;;;;1.64;100.00;96796.19;5023274;28;20068;-75
2023/12/07 03:05:40;;;;;;;0.20;0.20;;;;;;;1.64;100.00;96795.38;5029346;28;20045;-76
2023/12/07 03:08:28;;;;;;;0.20;0.20;;;;;;;1.67;100.00;96803.75;5028223;28;20172;-75
2023/12/07 03:11:14;;;;;;;0.10;0.10;;;;;;;1.59;100.00;96795.94;5027328;28;20046;-76
2023/12/07 03:13:59;;;;;;;0.20;0.20;;;;;;;1.65;100.00;96804.94;5025697;28;20045;-75
2023/12/07 03:16:45;;;;;;;0.20;0.20;;;;;;;1.58;100.00;96801.41;5025494;28;20076;-75
2023/12/07 03:19:31;;;;;;;0.20;0.20;;;;;;;1.63;100.00;96794.56;5028422;28;20049;-76
2023/12/07 03:22:17;;;;;;;0.20;0.20;;;;;;;1.59;100.00;96795.13;5026815;28;20416;-75
2023/12/07 03:25:03;;;;;;;0.20;0.20;;;;;;;1.49;100.00;96799.84;5026322;28;20486;-76
2023/12/07 03:27:49;;;;;;;0.10;0.10;;;;;;;1.46;100.00;96792.28;5028896;28;20048;-76
2023/12/07 03:30:35;;;;;;;0.20;0.20;;;;;;;1.45;100.00;96788.84;5028124;28;20547;-76
2023/12/07 03:33:20;;;;;;;0.20;0.20;;;;;;;1.53;100.00;96795.84;5025340;28;20094;-76
2023/12/07 03:36:07;;;;;;;0.20;0.20;;;;;;;1.58;100.00;96790.84;5025858;28;20214;-76
2023/12/07 03:38:53;;;;;;;0.20;0.20;;;;;;;1.62;100.00;96790.28;5013865;28;20033;-76
2023/12/07 03:41:39;;;;;;;0.22;0.22;;;;;;;1.66;100.00;96788.09;5026779;28;20076;-76
2023/12/07 03:44:26;;;;;;;0.20;0.20;;;;;;;1.67;100.00;96795.00;5025358;28;20046;-76
2023/12/07 03:47:12;;;;;;;0.20;0.20;;;;;;;1.56;100.00;96792.84;5024729;28;20036;-76
2023/12/07 03:49:58;;;;;;;0.10;0.10;;;;;;;1.52;100.00;96791.56;5027686;28;20059;-76
2023/12/07 03:52:43;;;;;;;0.22;0.22;;;;;;;1.54;100.00;96794.84;5027073;28;20351;-76
2023/12/07 03:55:29;;;;;;;0.20;0.20;;;;;;;1.54;100.00;96790.38;5025471;28;20246;-76
2023/12/07 03:58:15;;;;;;;0.20;0.20;;;;;;;1.60;100.00;96788.84;5026470;28;20029;-76
2023/12/07 04:01:01;;;;;;;0.20;0.20;;;;;;;1.57;100.00;96787.38;5026426;28;20041;-76
2023/12/07 04:03:47;;;;;;;0.20;0.20;;;;;;;1.58;100.00;96796.13;5025213;28;20180;-76
2023/12/07 04:06:33;;;;;;;0.20;0.20;;;;;;;1.63;100.00;96799.84;5028945;28;20040;-76
2023/12/07 04:09:19;;;;;;;0.20;0.20;;;;;;;1.65;100.00;96797.03;5023872;28;20451;-76
2023/12/07 04:12:05;;;;;;;0.13;0.13;;;;;;;1.48;100.00;96787.66;5025830;28;20033;-76
2023/12/07 04:14:51;;;;;;;0.20;0.20;;;;;;;1.35;100.00;96788.31;5023988;28;20040;-76
2023/12/07 04:17:37;;;;;;;0.10;0.10;;;;;;;1.13;100.00;96781.31;5024483;28;20059;-76
2023/12/07 04:20:23;;;;;;;0.20;0.20;;;;;;;0.95;100.00;96786.94;5026075;28;20334;-76
2023/12/07 04:23:09;;;;;;;0.20;0.20;;;;;;;0.80;100.00;96779.81;5023281;28;20022;-76
2023/12/07 04:25:55;;;;;;;0.20;0.20;;;;;;;0.69;100.00;96784.69;5026253;28;20505;-77
2023/12/07 04:28:41;;;;;;;0.20;0.20;;;;;;;0.58;100.00;96790.41;5025225;28;20061;-77
2023/12/07 04:31:27;;;;;;;0.20;0.20;;;;;;;0.57;100.00;96784.31;5025173;28;20088;-76
2023/12/07 04:34:13;;;;;;;0.13;0.13;;;;;;;0.62;100.00;96786.41;5023790;28;20037;-76
2023/12/07 04:36:58;;;;;;;0.20;0.20;;;;;;;0.71;100.00;96790.63;5024423;28;20052;-76
2023/12/07 04:39:44;;;;;;;0.20;0.20;;;;;;;0.69;100.00;96787.31;5025543;28;20529;-77
2023/12/07 04:42:30;;;;;;;0.20;0.20;;;;;;;0.84;100.00;96790.81;5023541;28;20413;-76
2023/12/07 04:45:16;;;;;;;0.10;0.10;;;;;;;0.79;100.00;96796.63;5026324;28;20064;-77
2023/12/07 04:48:03;;;;;;;0.20;0.20;;;;;;;0.71;100.00;96807.25;5009296;28;20125;-77
2023/12/07 04:50:49;;;;;;;0.20;0.20;;;;;;;0.61;100.00;96808.47;5011387;28;20033;-76
2023/12/07 04:53:35;;;;;;;0.20;0.20;;;;;;;0.64;100.00;96816.03;5026348;28;20041;-76
2023/12/07 04:56:21;;;;;;;0.20;0.20;;;;;;;0.67;100.00;96808.56;5025628;28;20056;-76
2023/12/07 04:59:08;;;;;;;0.20;0.20;;;;;;;0.76;100.00;96811.97;5023727;28;20055;-77
2023/12/07 05:01:54;;;;;;;0.20;0.20;;;;;;;0.67;100.00;96807.75;5019092;28;20040;-76
2023/12/07 05:04:40;;;;;;;0.20;0.20;;;;;;;0.69;100.00;96803.94;5027833;28;20044;-77
2023/12/07 05:07:28;;;;;;;0.10;0.10;;;;;;;0.54;100.00;96814.47;5026255;28;20050;-77
2023/12/07 05:10:14;;;;;;;0.20;0.20;;;;;;;0.25;100.00;96817.78;5028222;28;20041;-76
2023/12/07 05:13:00;;;;;;;0.20;0.20;;;;;;;0.05;100.00;96819.22;5028811;28;20039;-76
2023/12/07 05:15:46;;;;;;;0.20;0.20;;;;;;;-0.06;100.00;96819.63;5024258;28;20033;-74
2023/12/07 05:18:32;;;;;;;0.10;0.10;;;;;;;-0.05;100.00;96831.78;5025392;28;20124;-74
2023/12/07 05:21:18;;;;;;;0.17;0.17;;;;;;;-0.03;100.00;96827.16;5027917;28;20107;-74
2023/12/07 05:24:06;;;;;;;0.20;0.20;;;;;;;-0.10;100.00;96819.16;5026851;28;20438;-76
2023/12/07 05:26:52;;;;;;;0.20;0.20;;;;;;;-0.14;100.00;96815.25;5030843;28;20041;-74
2023/12/07 05:29:38;;;;;;;0.20;0.20;;;;;;;-0.07;100.00;96816.19;5031690;28;20032;-75
2023/12/07 05:32:24;;;;;;;0.10;0.10;;;;;;;-0.08;100.00;96827.72;5029758;28;20478;-75
2023/12/07 05:35:10;;;;;;;0.20;0.20;;;;;;;-0.23;100.00;96815.44;5032337;28;20033;-79
2023/12/07 05:37:55;;;;;;;0.20;0.20;;;;;;;-0.31;100.00;96813.69;5029990;28;20037;-76
2023/12/07 05:40:41;;;;;;;0.10;0.10;;;;;;;-0.31;100.00;96818.94;5021590;28;20045;-75
2023/12/07 05:43:27;;;;;;;0.20;0.20;;;;;;;-0.36;100.00;96818.63;5031504;28;20068;-75
2023/12/07 05:46:13;;;;;;;0.20;0.20;;;;;;;-0.46;100.00;96826.72;5031202;28;20387;-75
2023/12/07 05:48:59;;;;;;;0.20;0.20;;;;;;;-0.49;100.00;96823.59;5027481;28;20032;-75
2023/12/07 05:51:45;;;;;;;0.20;0.20;;;;;;;-0.54;100.00;96829.41;5031146;28;20128;-75
2023/12/07 05:54:31;;;;;;;0.20;0.20;;;;;;;-0.47;100.00;96825.06;5029871;28;20541;-75
2023/12/07 05:57:17;;;;;;;0.20;0.20;;;;;;;-0.48;100.00;96825.25;5029960;28;20103;-75
2023/12/07 06:00:05;;;;;;;0.20;0.20;;;;;;;-0.42;100.00;96832.47;5032285;28;20568;-75
2023/12/07 06:02:57;;;;;;;0.30;0.30;;;;;;;-0.34;100.00;96832.41;5005886;28;20057;-75
2023/12/07 06:05:45;;;;;;;0.20;0.20;;;;;;;-0.26;100.00;96831.56;5012303;28;20068;-75
2023/12/07 06:08:31;;;;;;;0.17;0.17;;;;;;;-0.23;100.00;96831.22;5010465;28;20367;-75
2023/12/07 06:11:16;;;;;;;0.20;0.20;;;;;;;-0.22;100.00;96835.50;5011052;28;20037;-76
2023/12/07 06:14:02;;;;;;;0.10;0.10;;;;;;;-0.12;100.00;96841.38;5011450;28;20116;-75
2023/12/07 06:16:49;;;;;;;0.20;0.20;;;;;;;-0.08;100.00;96834.75;5013807;28;20525;-76
2023/12/07 06:19:35;;;;;;;0.10;0.10;;;;;;;-0.05;100.00;96845.78;5011136;28;20041;-76
2023/12/07 06:22:21;;;;;;;0.20;0.20;;;;;;;-0.17;100.00;96844.50;5011398;28;20087;-76
2023/12/07 06:25:08;;;;;;;0.20;0.20;;;;;;;0.02;100.00;96847.72;5010864;28;20087;-76
2023/12/07 06:27:56;;;;;;;0.20;0.20;;;;;;;0.03;100.00;96854.63;5010839;28;20394;-76
2023/12/07 06:30:41;;;;;;;0.20;0.20;;;;;;;-0.11;100.00;96858.78;5012338;28;20045;-76
2023/12/07 06:33:27;;;;;;;0.20;0.20;;;;;;;-0.17;100.00;96862.91;5010650;28;20516;-75
2023/12/07 06:36:23;;;;;;;0.20;0.20;;;;;;;-0.03;100.00;96866.63;5009272;28;20041;-75
2023/12/07 06:39:10;;;;;;;0.20;0.20;;;;;;;-0.06;100.00;96869.63;5009835;28;20049;-76
2023/12/07 06:41:56;;;;;;;0.20;0.20;;;;;;;-0.14;100.00;96870.47;5012756;28;20431;-76
2023/12/07 06:44:50;;;;;;;0.20;0.20;;;;;;;0.03;100.00;96870.41;5011195;28;20041;-76
2023/12/07 06:47:38;;;;;;;0.20;0.20;;;;;;;0.39;100.00;96870.66;5010934;28;20038;-76
2023/12/07 06:50:23;;;;;;;0.20;0.20;;;;;;;0.41;100.00;96871.34;5013265;28;20038;-75
2023/12/07 06:53:09;;;;;;;0.20;0.20;;;;;;;0.26;100.00;96872.09;5008949;28;20138;-76
2023/12/07 06:55:55;;;;;;;0.20;0.20;;;;;;;0.31;100.00;96862.81;5013938;28;20596;-76
2023/12/07 06:58:41;;;;;;;0.13;0.13;;;;;;;0.38;100.00;96864.59;5011148;28;20132;-76
2023/12/07 07:01:27;;;;;;;0.10;0.10;;;;;;;0.29;100.00;96873.53;5007509;28;20625;-75
2023/12/07 07:04:13;;;;;;;0.20;0.20;;;;;;;0.31;100.00;96868.09;5007067;28;20075;-76
2023/12/07 07:06:58;;;;;;;0.20;0.20;;;;;;;0.23;100.00;96867.19;5010592;28;20508;-76
2023/12/07 07:09:45;;;;;;;0.20;0.20;;;;;;;0.35;100.00;96858.88;5036409;28;20045;-76
2023/12/07 07:12:31;;;;;;;0.20;0.20;;;;;;;0.19;100.00;96860.59;5011816;28;20026;-76
2023/12/07 07:15:18;;;;;;;0.20;0.20;;;;;;;0.23;100.00;96856.66;5010301;28;20049;-76
2023/12/07 07:18:05;;;;;;;0.10;0.10;;;;;;;0.38;100.00;96854.06;5010991;28;20042;-75
2023/12/07 07:20:51;;;;;;;0.17;0.17;;;;;;;0.18;100.00;96847.63;5010673;28;20033;-76
2023/12/07 07:23:37;;;;;;;0.20;0.20;;;;;;;0.05;100.00;96853.44;5008021;28;20373;-75
2023/12/07 07:26:24;;;;;;;0.10;0.10;;;;;;;0.06;100.00;96846.38;5009347;28;20208;-75
2023/12/07 07:29:10;;;;;;;0.20;0.20;;;;;;;-0.02;100.00;96836.69;5007429;28;20045;-75
2023/12/07 07:31:56;;;;;;;0.20;0.20;;;;;;;-0.15;100.00;96842.53;5010605;28;20041;-76
2023/12/07 07:34:42;;;;;;;0.10;0.10;;;;;;;-0.17;100.00;96838.41;5008712;28;20129;-76
2023/12/07 07:37:28;;;;;;;0.20;0.20;;;;;;;-0.48;100.00;96830.50;5007406;28;20045;-76
2023/12/07 07:40:14;;;;;;;0.20;0.20;;;;;;;-0.41;100.00;96836.72;5006552;28;20033;-76
2023/12/07 07:43:00;;;;;;;0.20;0.20;;;;;;;-0.11;100.00;96837.75;5008545;28;20044;-76
2023/12/07 07:45:46;;;;;;;0.20;0.20;;;;;;;0.01;100.00;96839.00;5009390;28;20033;-76
2023/12/07 07:48:32;;;;;;;0.20;0.20;;;;;;;-0.09;100.00;96841.81;5007437;28;20453;-76
2023/12/07 07:51:18;;;;;;;0.20;0.20;;;;;;;-0.05;100.00;96847.59;5010462;28;20481;-76
2023/12/07 07:54:03;;;;;;;0.10;0.10;;;;;;;-0.33;100.00;96839.31;5009898;28;20043;-76
2023/12/07 07:56:49;;;;;;;0.20;0.20;;;;;;;-0.19;100.00;96835.97;5008041;28;20053;-76
2023/12/07 07:59:35;;;;;;;0.20;0.20;;;;;;;-0.11;100.00;96837.75;5008852;28;20108;-76
2023/12/07 08:02:23;;;;;;;0.20;0.20;;;;;;;-0.06;100.00;96840.69;5008658;28;20045;-76
2023/12/07 08:05:09;;;;;;;0.20;0.20;;;;;;;-0.32;100.00;96836.50;5011583;28;20081;-76
2023/12/07 08:07:55;;;;;;;0.17;0.17;;;;;;;-0.45;100.00;96830.19;5009016;28;20544;-76
2023/12/07 08:10:41;;;;;;;0.20;0.20;;;;;;;-0.41;100.00;96832.28;5006394;28;20401;-76
2023/12/07 08:13:27;;;;;;;0.20;0.20;;;;;;;-0.26;100.00;96823.69;5009935;28;20037;-75
2023/12/07 08:16:13;;;;;;;0.20;0.20;;;;;;;-0.07;100.00;96825.91;5008424;28;20379;-76
2023/12/07 08:18:59;;;;;;;0.20;0.20;;;;;;;-0.35;100.00;96820.25;5007228;28;20438;-76
2023/12/07 08:21:45;;;;;;;0.20;0.20;;;;;;;-0.17;100.00;96812.94;5009265;28;20116;-75
2023/12/07 08:24:30;;;;;;;0.20;0.20;;;;;;;-0.22;100.00;96814.47;5010299;28;20398;-75
2023/12/07 08:27:16;;;;;;;0.10;0.10;;;;;;;-0.21;100.00;96816.09;5010259;28;20054;-76
2023/12/07 08:30:03;;;;;;;0.20;0.20;;;;;;;-0.17;100.00;96818.19;5008234;28;20048;-76
2023/12/07 08:32:49;;;;;;;0.20;0.20;;;;;;;-0.36;100.00;96821.25;5027243;28;20041;-76
2023/12/07 08:35:35;;;;;;;0.20;0.20;;;;;;;-0.34;100.00;96827.16;5025588;28;20553;-76
2023/12/07 08:38:22;;;;;;;0.28;0.28;;;;;;;-0.13;100.00;96831.84;5027543;28;20104;-76
2023/12/07 08:41:08;;;;;;;0.20;0.20;;;;;;;-0.01;100.00;96827.81;5026023;28;20033;-76
2023/12/07 08:43:54;;;;;;;0.20;0.20;;;;;;;-0.15;100.00;96821.50;5024355;28;20045;-76
2023/12/07 08:46:41;;;;;;;0.20;0.20;;;;;;;0.02;100.00;96824.03;5026836;28;20037;-76
2023/12/07 08:49:27;;;;;;;0.30;0.30;;;;;;;-0.09;100.00;96823.41;5026854;28;20548;-75
2023/12/07 08:52:13;;;;;;;0.20;0.20;;;;;;;-0.26;100.00;96827.13;5027042;28;20037;-76
2023/12/07 08:54:59;;;;;;;0.30;0.30;;;;;;;-0.58;100.00;96833.34;5012321;28;20041;-76
2023/12/07 08:57:45;;;;;;;0.30;0.30;;;;;;;-0.65;100.00;96817.41;5017676;28;20390;-75
2023/12/07 09:00:32;;;;;;;0.20;0.20;;;;;;;-0.72;100.00;96834.84;5024438;28;20038;-75
2023/12/07 09:03:18;;;;;;;0.30;0.30;;;;;;;-0.76;100.00;96840.63;5002906;28;20702;-75
2023/12/07 09:06:05;;;;;;;0.35;0.30;;;;;;;-0.55;100.00;96838.25;4991105;28;20038;-77
2023/12/07 09:08:51;;;;;;;0.77;0.45;;;;;;;-0.49;100.00;96836.75;4991714;28;20084;-77
2023/12/07 09:11:36;;;;;;;0.80;0.50;;;;;;;-0.38;100.00;96839.84;4992949;28;20042;-76
2023/12/07 09:14:22;;;;;;;0.30;0.30;;;;;;;-0.33;100.00;96850.66;4992468;28;20724;-76
2023/12/07 09:17:08;;;;;;;0.52;0.40;;;;;;;-0.44;100.00;96845.78;4993028;28;20037;-76
2023/12/07 09:19:54;;;;;;;0.80;0.45;;;;;;;-0.46;100.00;96852.22;4993053;28;20038;-77
2023/12/07 09:22:42;;;;;;;0.60;0.40;;;;;;;-0.45;100.00;96846.78;4992961;28;20041;-77
2023/12/07 09:25:29;;;;;;;0.50;0.35;;;;;;;-0.53;100.00;96841.53;4993539;28;20118;-77
2023/12/07 09:28:15;;;;;;;0.20;0.20;;;;;;;-0.56;100.00;96842.69;4990819;28;20069;-77
2023/12/07 09:31:01;;;;;;;0.30;0.30;;;;;;;-0.48;100.00;96843.66;4987908;28;20096;-76
2023/12/07 09:33:47;;;;;;;0.30;0.30;;;;;;;-0.28;100.00;96853.59;5012151;28;20385;-77
2023/12/07 09:36:33;;;;;;;0.93;0.50;;;;;;;-0.26;100.00;96855.25;5012056;28;20034;-77
2023/12/07 09:39:19;;;;;;;0.55;0.40;;;;;;;-0.04;100.00;96844.78;5009669;28;20434;-77
2023/12/07 09:42:05;;;;;;;0.20;0.20;;;;;;;-0.05;100.00;96844.94;5013128;28;20061;-77
2023/12/07 09:44:54;;;;;;;0.20;0.20;;;;;;;0.24;100.00;96845.13;5000048;28;20136;-77
2023/12/07 09:47:42;;;;;;;0.30;0.30;;;;;;;0.16;100.00;96841.72;5010887;28;20053;-76
2023/12/07 09:50:28;;;;;;;0.20;0.20;;;;;;;0.50;100.00;96843.94;5012346;28;20044;-77
2023/12/07 09:53:14;;;;;;;0.20;0.20;;;;;;;0.67;100.00;96842.81;4999205;28;20530;-77
2023/12/07 09:55:59;;;;;;;0.20;0.20;;;;;;;0.88;100.00;96834.25;5012298;28;20084;-77
2023/12/07 09:58:45;;;;;;;0.20;0.20;;;;;;;0.80;100.00;96827.25;5011665;28;20029;-76
2023/12/07 10:01:31;;;;;;;0.20;0.20;;;;;;;1.41;100.00;96831.59;5002521;28;20347;-77
2023/12/07 10:04:23;;;;;;;0.30;0.30;;;;;;;2.12;100.00;96830.06;5007524;28;20468;-77
2023/12/07 10:07:09;;;;;;;0.30;0.30;;;;;;;3.54;100.00;96830.84;5009631;28;20076;-77
2023/12/07 10:09:55;;;;;;;0.20;0.20;;;;;;;3.98;100.00;96822.50;5011648;28;20060;-77
2023/12/07 10:12:59;;;;;;;0.20;0.20;;;;;;;3.50;100.00;96822.50;5008711;28;20180;-77
2023/12/07 10:15:45;;;;;;;0.20;0.20;;;;;;;2.58;100.00;96817.31;5006985;28;20069;-76
2023/12/07 10:18:31;;;;;;;0.20;0.20;;;;;;;2.21;100.00;96810.44;5011057;28;20049;-76
2023/12/07 10:21:34;;;;;;;0.28;0.28;;;;;;;1.77;100.00;96808.72;5012683;28;20047;-77
2023/12/07 10:24:22;;;;;;;0.20;0.20;;;;;;;1.87;100.00;96803.19;4997295;28;20445;-76
2023/12/07 10:27:08;;;;;;;0.20;0.20;;;;;;;1.85;100.00;96810.44;5010810;28;20397;-76
2023/12/07 10:29:53;;;;;;;0.20;0.20;;;;;;;2.50;100.00;96799.78;5010967;28;20040;-76
2023/12/07 10:32:40;;;;;;;0.17;0.17;;;;;;;1.95;100.00;96803.88;5031499;28;20030;-76
2023/12/07 10:35:25;;;;;;;0.25;0.25;;;;;;;1.55;100.00;96801.75;5029891;28;20233;-76
2023/12/07 10:38:12;;;;;;;0.20;0.20;;;;;;;2.10;100.00;96797.72;5028055;28;20051;-76
2023/12/07 10:41:08;;;;;;;0.20;0.20;;;;;;;1.92;100.00;96795.50;4999112;28;20337;-76
2023/12/07 10:44:00;;;;;;;0.20;0.20;;;;;;;1.76;100.00;96807.09;5027038;28;20334;-77
2023/12/07 10:46:46;;;;;;;0.20;0.20;;;;;;;1.91;100.00;96817.63;5035502;28;20509;-76
2023/12/07 10:49:33;;;;;;;0.20;0.20;;;;;;;1.72;100.00;96805.84;5028517;28;20059;-76
2023/12/07 10:52:24;;;;;;;0.20;0.20;;;;;;;1.77;100.00;96802.63;5029478;28;20040;-76
2023/12/07 10:55:15;;;;;;;0.20;0.20;;;;;;;1.88;100.00;96802.16;5029545;28;20033;-77
2023/12/07 10:58:01;;;;;;;0.20;0.20;;;;;;;1.56;100.00;96788.41;5029436;28;20048;-77
2023/12/07 11:00:48;;;;;;;0.20;0.20;;;;;;;1.44;100.00;96792.47;5028003;28;20799;-77
2023/12/07 11:03:35;;;;;;;0.20;0.20;;;;;;;1.18;100.00;96781.59;5040536;28;20446;-77
2023/12/07 11:06:20;;;;;;;0.20;0.20;;;;;;;0.86;100.00;96777.44;5049796;28;20053;-76
2023/12/07 11:09:13;;;;;;;0.20;0.20;;;;;;;1.27;100.00;96764.66;5048384;28;20041;-76
2023/12/07 11:12:10;;;;;;;0.20;0.20;;;;;;;0.81;100.00;96765.66;5048464;28;20037;-76
2023/12/07 11:14:56;;;;;;;0.20;0.20;;;;;;;1.35;100.00;96760.13;5049056;28;20156;-76
2023/12/07 11:17:55;;;;;;;0.20;0.20;;;;;;;1.10;100.00;96756.13;5049833;28;20075;-77
2023/12/07 11:20:44;;;;;;;0.30;0.30;;;;;;;1.13;100.00;96753.13;5050056;28;20040;-77
2023/12/07 11:23:31;;;;;;;0.20;0.20;;;;;;;1.37;100.00;96744.94;5047007;28;20048;-77
2023/12/07 11:26:20;;;;;;;0.20;0.20;;;;;;;1.31;100.00;96744.84;5043934;28;20048;-77
2023/12/07 11:29:06;;;;;;;0.20;0.20;;;;;;;1.01;100.00;96739.59;5046408;28;20543;-77
2023/12/07 11:31:57;;;;;;;0.20;0.20;;;;;;;1.87;100.00;96737.19;5047888;28;20045;-77
2023/12/07 11:34:44;;;;;;;0.25;0.25;;;;;;;1.87;100.00;96735.38;5047130;28;20033;-77
2023/12/07 11:38:08;;;;;;;0.20;0.20;;;;;;;1.20;100.00;96732.13;5047108;28;20037;-77
2023/12/07 11:40:57;;;;;;;0.20;0.20;;;;;;;1.25;100.00;96737.69;5047946;28;20429;-77
2023/12/07 11:43:45;;;;;;;0.20;0.20;;;;;;;1.56;100.00;96725.09;5046229;28;20036;-77
2023/12/07 11:46:31;;;;;;;0.20;0.20;;;;;;;1.34;100.00;96721.56;5046446;28;20032;-77
2023/12/07 11:49:17;;;;;;;0.20;0.20;;;;;;;1.17;100.00;96712.22;5047707;28;20075;-77
2023/12/07 11:52:32;;;;;;;0.20;0.20;;;;;;;1.24;100.00;96702.56;5048342;28;20119;-77
2023/12/07 11:55:18;;;;;;;0.30;0.30;;;;;;;1.20;100.00;96695.22;5038929;28;20472;-78
2023/12/07 11:58:04;;;;;;;0.20;0.20;;;;;;;2.21;100.00;96681.88;5047352;28;20044;-77
2023/12/07 12:00:53;;;;;;;0.20;0.20;;;;;;;1.62;100.00;96665.47;5047630;28;20653;-77
2023/12/07 12:03:39;;;;;;;0.20;0.20;;;;;;;1.79;100.00;96660.75;5048900;28;20531;-78
2023/12/07 12:06:26;;;;;;;0.20;0.20;;;;;;;2.06;100.00;96659.19;5049463;28;20049;-77
2023/12/07 12:09:13;;;;;;;0.20;0.20;;;;;;;1.39;100.00;96663.00;5047410;28;20037;-77
2023/12/07 12:12:00;;;;;;;0.28;0.28;;;;;;;0.94;100.00;96667.53;5044957;28;20044;-78
2023/12/07 12:14:46;;;;;;;0.25;0.25;;;;;;;2.09;100.00;96664.09;5045558;28;20048;-77
2023/12/07 12:17:31;;;;;;;0.20;0.20;;;;;;;2.35;100.00;96651.13;5044790;28;20493;-77
2023/12/07 12:20:18;;;;;;;0.20;0.20;;;;;;;2.98;100.00;96651.91;5033323;28;20124;-78
2023/12/07 12:23:04;;;;;;;0.10;0.10;;;;;;;2.64;100.00;96643.97;5047020;28;20060;-77
2023/12/07 12:25:51;;;;;;;0.20;0.20;;;;;;;1.97;100.00;96633.94;5047067;28;20471;-76
2023/12/07 12:28:42;;;;;;;0.20;0.20;;;;;;;1.87;100.00;96636.91;5046479;28;20115;-77
2023/12/07 12:31:28;;;;;;;0.20;0.20;;;;;;;1.79;100.00;96632.59;5045196;28;20129;-78
2023/12/07 12:34:14;;;;;;;0.20;0.20;;;;;;;1.68;100.00;96628.59;5039480;28;20032;-76
2023/12/07 12:37:00;;;;;;;0.20;0.20;;;;;;;1.52;100.00;96634.13;5046233;28;20554;-77
2023/12/07 12:39:46;;;;;;;0.20;0.20;;;;;;;1.32;100.00;96635.72;5048946;28;20052;-77
2023/12/07 12:42:33;;;;;;;0.20;0.20;;;;;;;1.26;100.00;96620.66;5047135;28;20389;-77
2023/12/07 12:45:19;;;;;;;0.20;0.20;;;;;;;1.32;100.00;96626.03;5038383;28;20044;-78
2023/12/07 12:48:05;;;;;;;0.20;0.20;;;;;;;1.07;100.00;96632.59;5047301;28;20033;-77
2023/12/07 12:50:51;;;;;;;0.20;0.20;;;;;;;1.00;100.00;96626.44;5046954;28;20047;-77
2023/12/07 12:53:45;;;;;;;0.20;0.20;;;;;;;0.92;100.00;96623.91;5047063;28;20101;-76
2023/12/07 12:56:32;;;;;;;0.20;0.20;;;;;;;0.81;100.00;96622.56;5047445;28;20044;-76
2023/12/07 12:59:18;;;;;;;0.20;0.20;;;;;;;0.74;100.00;96622.47;5046904;28;20253;-77
2023/12/07 13:02:04;;;;;;;0.10;0.10;;;;;;;0.27;100.00;96618.38;5046654;28;20061;-77
2023/12/07 13:04:50;;;;;;;0.20;0.20;;;;;;;0.41;100.00;96614.13;5048316;28;20333;-77